createdAt,value
2022-11-27T00:01:09.898Z,97259.84
2022-11-27T00:06:18.058Z,97295.75
2022-11-27T00:11:22.473Z,97300.78
2022-11-27T00:16:26.610Z,97297.50
2022-11-27T00:21:31.754Z,97285.56
2022-11-27T00:26:37.767Z,97301.91
2022-11-27T00:31:40.766Z,97281.25
2022-11-27T00:36:47.793Z,97309.41
2022-11-27T00:41:50.548Z,97278.66
2022-11-27T00:46:52.745Z,97310.53
2022-11-27T00:51:54.892Z,97315.75
2022-11-27T00:56:57.110Z,97316.69
2022-11-27T01:01:59.490Z,97326.06
2022-11-27T01:07:01.662Z,97315.84
2022-11-27T01:12:04.114Z,97308.16
2022-11-27T01:17:06.428Z,97312.38
2022-11-27T01:22:08.741Z,97306.31
2022-11-27T01:27:10.879Z,97310.59
2022-11-27T01:32:12.974Z,97311.53
2022-11-27T01:37:15.225Z,97292.63
2022-11-27T01:42:39.899Z,97302.03
2022-11-27T01:47:47.534Z,97314.97
2022-11-27T01:52:54.767Z,97303.78
2022-11-27T01:58:02.472Z,97303.81
2022-11-27T02:03:04.925Z,97296.84
2022-11-27T02:08:10.576Z,97295.25
2022-11-27T02:13:22.044Z,97283.19
2022-11-27T02:19:04.077Z,97295.31
2022-11-27T02:24:41.940Z,97291.88
2022-11-27T02:29:48.455Z,97296.97
2022-11-27T02:35:04.511Z,97300.41
2022-11-27T02:40:14.566Z,97292.59
2022-11-27T02:45:24.149Z,97312.38
2022-11-27T02:50:29.755Z,97314.84
2022-11-27T02:55:35.158Z,97319.97
2022-11-27T03:00:40.004Z,97311.53
2022-11-27T03:05:46.006Z,97291.00
2022-11-27T03:11:07.099Z,97306.50
2022-11-27T03:16:12.218Z,97319.41
2022-11-27T03:21:27.348Z,97296.25
2022-11-27T03:26:31.123Z,97308.28
2022-11-27T03:31:33.696Z,97296.28
2022-11-27T03:36:35.900Z,97314.31
2022-11-27T03:41:59.933Z,97320.28
2022-11-27T03:47:45.042Z,97318.59
2022-11-27T03:53:23.492Z,97303.06
2022-11-27T03:58:35.567Z,97311.69
2022-11-27T04:03:38.092Z,97302.22
2022-11-27T04:08:40.798Z,97295.38
2022-11-27T04:13:43.207Z,97299.72
2022-11-27T04:18:45.351Z,97289.41
2022-11-27T04:23:47.441Z,97304.88
2022-11-27T04:28:49.703Z,97306.53
2022-11-27T04:33:51.960Z,97304.81
2022-11-27T04:38:54.107Z,97293.66
2022-11-27T04:43:56.230Z,97282.50
2022-11-27T04:49:01.377Z,97290.22
2022-11-27T04:54:03.680Z,97286.78
2022-11-27T04:59:06.088Z,97311.69
2022-11-27T05:04:08.125Z,97315.06
2022-11-27T05:09:10.424Z,97291.81
2022-11-27T05:14:15.286Z,97305.63
2022-11-27T05:19:19.495Z,97316.81
2022-11-27T05:24:24.455Z,97325.41
2022-11-27T05:29:27.019Z,97323.75
2022-11-27T05:34:29.214Z,97317.63
2022-11-27T05:39:31.324Z,97307.41
2022-11-27T05:44:57.904Z,97327.19
2022-11-27T05:50:00.831Z,97325.50
2022-11-27T05:55:06.211Z,97307.47
2022-11-27T06:00:09.069Z,97330.69
2022-11-27T06:05:11.277Z,97347.00
2022-11-27T06:10:13.759Z,97334.97
2022-11-27T06:15:16.018Z,97322.91
2022-11-27T06:20:20.413Z,97328.88
2022-11-27T06:25:22.471Z,97343.44
2022-11-27T06:30:24.876Z,97326.22
2022-11-27T06:35:26.950Z,97304.69
2022-11-27T06:40:29.019Z,97326.25
2022-11-27T06:45:31.462Z,97325.25
2022-11-27T06:50:33.966Z,97326.78
2022-11-27T06:55:39.143Z,97318.81
2022-11-27T07:00:41.487Z,97335.84
2022-11-27T07:05:43.804Z,97332.25
2022-11-27T07:10:46.172Z,97351.25
2022-11-27T07:15:48.397Z,97333.94
2022-11-27T07:20:56.612Z,97304.50
2022-11-27T07:25:59.600Z,97311.56
2022-11-27T07:31:02.264Z,97298.41
2022-11-27T07:36:12.776Z,97320.75
2022-11-27T07:41:15.487Z,97312.09
2022-11-27T07:46:23.567Z,97323.84
2022-11-27T07:51:25.767Z,97330.81
2022-11-27T07:56:28.120Z,97329.72
2022-11-27T08:01:30.241Z,97307.47
2022-11-27T08:06:32.655Z,97320.50
2022-11-27T08:11:35.528Z,97307.06
2022-11-27T08:16:37.789Z,97316.78
2022-11-27T08:21:39.870Z,97288.19
2022-11-27T08:26:42.196Z,97306.25
2022-11-27T08:31:44.277Z,97306.06
2022-11-27T08:36:46.514Z,97290.44
2022-11-27T08:41:48.551Z,97303.91
2022-11-27T08:46:50.808Z,97275.22
2022-11-27T08:51:53.082Z,97273.69
2022-11-27T08:56:55.438Z,97264.34
2022-11-27T09:01:57.548Z,97266.59
2022-11-27T09:06:59.834Z,97271.72
2022-11-27T09:12:02.110Z,97263.94
2022-11-27T09:17:04.261Z,97238.88
2022-11-27T09:22:06.401Z,97240.44
2022-11-27T09:27:08.598Z,97227.16
2022-11-27T09:32:10.853Z,97229.66
2022-11-27T09:37:12.975Z,97202.72
2022-11-27T09:42:34.304Z,97207.09
2022-11-27T09:47:41.929Z,97212.06
2022-11-27T09:53:12.025Z,97188.88
2022-11-27T09:58:36.491Z,97196.66
2022-11-27T10:03:42.164Z,97198.56
2022-11-27T10:09:02.891Z,97197.72
2022-11-27T10:14:29.582Z,97201.69
2022-11-27T10:19:52.283Z,97174.59
2022-11-27T10:25:18.435Z,97180.03
2022-11-27T10:30:22.265Z,97178.94
2022-11-27T10:35:30.837Z,97181.50
2022-11-27T10:41:07.762Z,97174.38
2022-11-27T10:46:19.616Z,97166.13
2022-11-27T10:51:30.924Z,97154.41
2022-11-27T10:56:36.467Z,97168.63
2022-11-27T11:01:47.513Z,97158.16
2022-11-27T11:06:50.311Z,97150.03
2022-11-27T11:11:52.668Z,97146.50
2022-11-27T11:16:55.157Z,97144.78
2022-11-27T11:22:00.094Z,97146.75
2022-11-27T11:27:27.356Z,97139.81
2022-11-27T11:32:36.503Z,97128.50
2022-11-27T11:37:42.646Z,97138.66
2022-11-27T11:42:55.574Z,97118.50
2022-11-27T11:48:03.735Z,97122.81
2022-11-27T11:53:22.789Z,97125.72
2022-11-27T11:58:53.071Z,97131.97
2022-11-27T12:04:24.625Z,97136.06
2022-11-27T12:09:29.506Z,97126.16
2022-11-27T12:14:40.904Z,97116.19
2022-11-27T12:20:20.263Z,97109.16
2022-11-27T12:25:34.336Z,97105.53
2022-11-27T12:30:48.902Z,97107.34
2022-11-27T12:36:26.515Z,97112.09
2022-11-27T12:41:28.626Z,97113.69
2022-11-27T12:47:03.305Z,97077.09
2022-11-27T12:52:21.675Z,97102.94
2022-11-27T12:57:40.709Z,97103.25
2022-11-27T13:03:09.427Z,97115.81
2022-11-27T13:08:21.214Z,97104.47
2022-11-27T13:13:34.974Z,97111.28
2022-11-27T13:18:41.746Z,97123.22
2022-11-27T13:23:44.405Z,97116.69
2022-11-27T13:29:13.974Z,97123.31
2022-11-27T13:34:24.031Z,97126.38
2022-11-27T13:39:29.516Z,97120.44
2022-11-27T13:44:34.641Z,97117.56
2022-11-27T13:49:38.309Z,97118.75
2022-11-27T13:54:56.030Z,97123.28
2022-11-27T14:00:09.073Z,97114.50
2022-11-27T14:05:19.789Z,97120.56
2022-11-27T14:10:25.936Z,97122.53
2022-11-27T14:15:30.861Z,97103.00
2022-11-27T14:20:35.355Z,97106.06
2022-11-27T14:25:38.270Z,97114.41
2022-11-27T14:30:48.365Z,97116.56
2022-11-27T14:35:56.932Z,97115.44
2022-11-27T14:41:09.880Z,97117.97
2022-11-27T14:46:21.248Z,97110.47
2022-11-27T14:51:29.900Z,97117.47
2022-11-27T14:56:39.439Z,97102.22
2022-11-27T15:01:42.154Z,97122.94
2022-11-27T15:06:46.787Z,97114.59
2022-11-27T15:12:11.865Z,97121.56
2022-11-27T15:17:24.685Z,97119.03
2022-11-27T15:22:27.087Z,97103.13
2022-11-27T15:27:33.640Z,97128.44
2022-11-27T15:32:56.167Z,97117.56
2022-11-27T15:38:04.902Z,97127.72
2022-11-27T15:43:12.882Z,97124.09
2022-11-27T15:48:17.662Z,97110.13
2022-11-27T15:53:19.991Z,97106.28
2022-11-27T15:58:22.075Z,97128.84
2022-11-27T16:03:24.271Z,97111.72
2022-11-27T16:08:26.572Z,97121.31
2022-11-27T16:13:29.515Z,97125.91
2022-11-27T16:18:33.044Z,97120.00
2022-11-27T16:23:38.091Z,97119.16
2022-11-27T16:28:40.731Z,97095.00
2022-11-27T16:33:42.925Z,97113.88
2022-11-27T16:38:46.643Z,97115.34
2022-11-27T16:43:51.653Z,97117.53
2022-11-27T16:48:57.537Z,97113.97
2022-11-27T16:54:02.623Z,97124.63
2022-11-27T16:59:11.127Z,97105.22
2022-11-27T17:04:21.363Z,97116.63
2022-11-27T17:09:26.180Z,97103.06
2022-11-27T17:14:28.538Z,97091.72
2022-11-27T17:19:31.893Z,97087.72
2022-11-27T17:24:36.117Z,97090.38
2022-11-27T17:29:41.291Z,97096.56
2022-11-27T17:34:43.737Z,97089.56
2022-11-27T17:39:46.040Z,97079.41
2022-11-27T17:44:50.232Z,97095.59
2022-11-27T17:49:52.423Z,97082.56
2022-11-27T17:54:54.516Z,97078.47
2022-11-27T17:59:56.611Z,97078.84
2022-11-27T18:04:59.399Z,97090.78
2022-11-27T18:10:02.666Z,97068.78
2022-11-27T18:15:05.283Z,97066.66
2022-11-27T18:20:08.283Z,97064.69
2022-11-27T18:25:10.323Z,97062.75
2022-11-27T18:30:13.316Z,97054.75
2022-11-27T18:35:15.492Z,97086.03
2022-11-27T18:40:17.595Z,97089.13
2022-11-27T18:45:32.759Z,97069.66
2022-11-27T18:50:35.860Z,97075.94
2022-11-27T18:55:38.132Z,97079.81
2022-11-27T19:00:40.318Z,97067.09
2022-11-27T19:05:42.400Z,97060.84
2022-11-27T19:10:44.908Z,97065.22
2022-11-27T19:15:47.601Z,97073.88
2022-11-27T19:20:51.907Z,97078.41
2022-11-27T19:25:56.584Z,97076.31
2022-11-27T19:30:59.190Z,97064.03
2022-11-27T19:36:03.309Z,97078.88
2022-11-27T19:41:12.437Z,97071.84
2022-11-27T19:46:19.676Z,97074.22
2022-11-27T19:51:28.503Z,97059.31
2022-11-27T19:56:34.105Z,97086.00
2022-11-27T20:01:38.067Z,97085.91
2022-11-27T20:06:43.928Z,97083.25
2022-11-27T20:11:46.300Z,97066.09
2022-11-27T20:16:49.625Z,97075.44
2022-11-27T20:21:52.671Z,97037.03
2022-11-27T20:26:54.677Z,97074.84
2022-11-27T20:31:57.031Z,97078.22
2022-11-27T20:36:59.131Z,97081.09
2022-11-27T20:42:01.310Z,97068.41
2022-11-27T20:47:03.626Z,97047.34
2022-11-27T20:52:05.956Z,97031.59
2022-11-27T20:57:14.334Z,97043.78
2022-11-27T21:02:16.530Z,97031.50
2022-11-27T21:07:19.629Z,97045.91
2022-11-27T21:12:24.774Z,97044.16
2022-11-27T21:17:26.856Z,97011.88
2022-11-27T21:22:29.439Z,97039.22
2022-11-27T21:27:31.879Z,97041.19
2022-11-27T21:32:33.925Z,97027.28
2022-11-27T21:37:36.203Z,97022.75
2022-11-27T21:42:43.089Z,97016.94
2022-11-27T21:47:47.674Z,97029.56
2022-11-27T21:52:52.684Z,97033.81
2022-11-27T21:57:55.223Z,97027.00
2022-11-27T22:02:57.986Z,97020.97
2022-11-27T22:08:00.197Z,97037.03
2022-11-27T22:13:02.305Z,97020.19
2022-11-27T22:18:04.590Z,97008.78
2022-11-27T22:23:06.841Z,97003.69
2022-11-27T22:28:09.173Z,97013.84
2022-11-27T22:33:11.220Z,96998.56
2022-11-27T22:38:13.319Z,96982.19
2022-11-27T22:43:15.507Z,96988.44
2022-11-27T22:48:18.211Z,96980.94
2022-11-27T22:53:20.600Z,96982.56
2022-11-27T22:58:23.316Z,96989.53
2022-11-27T23:03:25.604Z,96981.44
2022-11-27T23:08:27.941Z,96999.56
2022-11-27T23:13:30.371Z,96985.91
2022-11-27T23:18:36.435Z,96988.50
2022-11-27T23:23:38.642Z,96990.00
2022-11-27T23:28:41.658Z,96974.38
2022-11-27T23:33:44.303Z,96944.41
2022-11-27T23:38:46.392Z,96971.72
2022-11-27T23:43:49.153Z,96972.78
2022-11-27T23:48:51.564Z,96968.75
2022-11-27T23:53:54.100Z,96963.41
2022-11-27T23:58:57.222Z,96953.72
